Archival Weather

Chicago O'Hare International

Chicago, Illinois (KORD)

Report from: Thursday, June 23, 2022 4:51 PM CDT
Current time: Tuesday, August 16, 2022 2:28 AM CDT

Current weather
Weather history
Weather forecast

Temperature28.3°C (82.9°F)
Heat index27.6°C (81.7°F)
Dew point9.4°C (48.9°F)
Winds 7 kts (3.6 m/s, 8.1 mph) East-Southeast (110°)
Visibility10 mi. (16.1 km)
Clouds Sky clear
Altimeter30.02 in.Hg (1017 mB)
Relative humidity31 %
Density altitude1,588 ft. (484 m)
Sea-level pressure101.6 kPa (1016 mB, 30.00 in.Hg)
Remarks Automated weather observing station with precipitation discriminator
Flight conditions Visual Meteorological Conditions
Raw dataKORD 232151Z 11007KT 10SM CLR 28/09 A3002 RMK AO2 SLP160 T02830094
An error has occurred. This application may no longer respond until reloaded. Reload 🗙